Time;durP1;ratioP1;P1;durP2;ratioP2;P2;SDS_P1;SDS_P2;PMS_P1;PMS_P2;Temp;Humidity;BMP_temperature;BMP_pressure;BME280_temperature;BME280_humidity;BME280_pressure;Samples;Min_cycle;Max_cycle;Signal;HPM_P1;HPM_P2
2020/12/21 00:01:01;;;;;;;10.05;7.90;;;18.90;52.10;;;;;;5066023;28;20036;-58
2020/12/21 00:03:26;;;;;;;10.90;7.93;;;18.90;52.10;;;;;;5049054;28;20041;-60
2020/12/21 00:05:52;;;;;;;10.98;7.32;;;18.90;52.20;;;;;;5067127;28;20043;-58
2020/12/21 00:08:17;;;;;;;10.32;7.25;;;18.90;52.20;;;;;;5069845;28;20036;-58
2020/12/21 00:10:43;;;;;;;10.70;7.53;;;19.00;52.30;;;;;;5074801;28;20039;-58
2020/12/21 00:13:08;;;;;;;10.77;7.47;;;19.00;52.30;;;;;;5071209;28;20036;-59
2020/12/21 00:15:34;;;;;;;9.30;6.40;;;19.00;52.20;;;;;;5066507;28;20445;-59
2020/12/21 00:17:59;;;;;;;9.02;6.45;;;19.10;52.20;;;;;;5066602;28;20040;-58
2020/12/21 00:20:24;;;;;;;9.57;6.70;;;19.00;52.20;;;;;;5066505;28;20045;-58
2020/12/21 00:22:50;;;;;;;7.80;6.50;;;19.00;52.10;;;;;;5066142;28;20056;-58
2020/12/21 00:25:15;;;;;;;8.77;6.47;;;19.10;52.10;;;;;;5066380;28;20036;-58
2020/12/21 00:27:41;;;;;;;10.35;6.90;;;19.00;52.10;;;;;;5066546;28;20028;-56
2020/12/21 00:30:06;;;;;;;8.00;6.60;;;19.10;52.10;;;;;;5065033;28;20109;-57
2020/12/21 00:32:33;;;;;;;10.07;7.45;;;19.10;52.00;;;;;;5066231;28;20685;-57
2020/12/21 00:34:59;;;;;;;10.80;6.78;;;19.10;52.00;;;;;;5066129;28;20036;-57
2020/12/21 00:37:24;;;;;;;8.68;6.63;;;19.10;52.00;;;;;;5065868;28;20041;-55
2020/12/21 00:39:50;;;;;;;9.65;6.93;;;19.10;51.90;;;;;;5065793;28;20414;-56
2020/12/21 00:42:15;;;;;;;9.13;6.50;;;19.00;51.90;;;;;;5066183;28;20059;-58
2020/12/21 00:44:41;;;;;;;11.63;7.03;;;19.10;51.90;;;;;;5065244;28;20059;-58
2020/12/21 00:47:06;;;;;;;9.18;6.60;;;19.00;51.90;;;;;;5065452;28;20399;-60
2020/12/21 00:49:32;;;;;;;9.48;6.93;;;19.00;51.80;;;;;;5064514;28;20110;-56
2020/12/21 00:51:57;;;;;;;10.18;6.55;;;19.10;51.90;;;;;;5065508;28;20874;-59
2020/12/21 00:54:23;;;;;;;9.77;6.43;;;19.00;51.90;;;;;;5066116;28;20228;-60
2020/12/21 00:56:48;;;;;;;10.95;6.88;;;19.00;51.80;;;;;;5065652;28;20052;-55
2020/12/21 00:59:14;;;;;;;8.20;6.50;;;19.00;51.80;;;;;;5047518;28;20565;-58
2020/12/21 01:01:39;;;;;;;7.63;5.63;;;19.00;51.80;;;;;;5063975;28;20040;-58
2020/12/21 01:04:05;;;;;;;8.50;5.90;;;19.00;51.80;;;;;;5065380;28;20029;-59
2020/12/21 01:06:32;;;;;;;8.35;5.95;;;19.00;51.80;;;;;;5065270;28;20033;-56
2020/12/21 01:08:58;;;;;;;10.43;5.80;;;19.00;51.80;;;;;;5065210;28;20557;-60
2020/12/21 01:11:24;;;;;;;9.40;5.65;;;19.00;51.80;;;;;;5046909;28;20041;-61
2020/12/21 01:13:49;;;;;;;8.07;6.13;;;19.00;51.80;;;;;;5066173;28;20025;-59
2020/12/21 01:16:18;;;;;;;8.75;6.10;;;19.00;51.80;;;;;;5046893;28;20032;-57
2020/12/21 01:18:43;;;;;;;9.30;5.40;;;18.90;51.80;;;;;;5031588;28;20040;-60
2020/12/21 01:21:08;;;;;;;8.57;5.78;;;18.90;51.80;;;;;;5065154;28;20415;-60
2020/12/21 01:23:34;;;;;;;6.80;5.75;;;18.90;51.80;;;;;;5065874;28;20036;-60
2020/12/21 01:25:59;;;;;;;6.53;5.63;;;18.90;51.80;;;;;;5064541;28;20040;-59
2020/12/21 01:28:25;;;;;;;9.32;5.53;;;18.90;51.80;;;;;;5065074;28;20056;-57
2020/12/21 01:30:51;;;;;;;7.10;5.03;;;18.90;51.80;;;;;;5064627;28;20033;-59
2020/12/21 01:33:16;;;;;;;6.68;5.57;;;18.90;51.80;;;;;;5064843;28;20111;-56
2020/12/21 01:35:42;;;;;;;6.68;5.00;;;18.90;51.80;;;;;;5056954;28;20396;-59
2020/12/21 01:38:07;;;;;;;7.55;5.10;;;18.80;51.80;;;;;;5064599;28;20675;-57
2020/12/21 01:40:33;;;;;;;6.47;4.97;;;18.90;51.90;;;;;;5064461;28;20033;-59
2020/12/21 01:42:58;;;;;;;5.63;4.95;;;18.90;52.00;;;;;;5064913;28;20175;-59
2020/12/21 01:45:24;;;;;;;6.53;4.78;;;18.90;52.00;;;;;;5065333;28;20040;-58
2020/12/21 01:47:49;;;;;;;6.47;5.22;;;18.90;52.00;;;;;;5047378;28;20032;-59
2020/12/21 01:50:15;;;;;;;7.70;4.97;;;18.90;52.10;;;;;;5047105;28;20127;-56
2020/12/21 01:52:40;;;;;;;7.13;4.93;;;19.00;52.20;;;;;;5046116;28;20044;-56
2020/12/21 01:55:06;;;;;;;5.07;4.22;;;19.00;52.20;;;;;;5030046;28;20033;-57
2020/12/21 01:57:31;;;;;;;5.85;4.75;;;19.00;52.20;;;;;;5064412;28;20036;-56
2020/12/21 01:59:57;;;;;;;5.88;4.75;;;19.00;52.20;;;;;;5064073;28;20099;-58
2020/12/21 02:02:22;;;;;;;6.07;4.97;;;19.00;52.20;;;;;;5030587;28;20044;-58
2020/12/21 02:04:48;;;;;;;6.22;4.97;;;19.10;52.10;;;;;;5046460;28;20107;-60
2020/12/21 02:07:14;;;;;;;6.13;4.78;;;19.10;52.10;;;;;;5046680;28;20536;-58
2020/12/21 02:09:39;;;;;;;5.25;4.20;;;19.00;52.00;;;;;;5063849;28;20036;-60
2020/12/21 02:12:05;;;;;;;5.85;4.60;;;19.00;52.00;;;;;;5063944;28;20032;-59
2020/12/21 02:14:30;;;;;;;6.03;4.25;;;19.10;52.00;;;;;;5063435;28;20082;-56
2020/12/21 02:16:56;;;;;;;6.40;4.45;;;19.10;51.90;;;;;;5064300;28;20095;-56
2020/12/21 02:19:21;;;;;;;5.50;4.43;;;19.10;51.90;;;;;;5065160;28;20032;-58
2020/12/21 02:21:47;;;;;;;5.85;4.70;;;19.10;52.20;;;;;;5046239;28;20055;-60
2020/12/21 02:24:13;;;;;;;7.70;4.93;;;19.10;51.90;;;;;;5063788;28;20027;-58
2020/12/21 02:26:38;;;;;;;5.75;4.60;;;19.00;51.80;;;;;;5063972;28;20460;-59
2020/12/21 02:29:04;;;;;;;7.15;5.05;;;19.00;51.80;;;;;;5064616;28;20234;-58
2020/12/21 02:31:29;;;;;;;6.35;4.43;;;19.10;51.80;;;;;;5063997;28;20033;-61
2020/12/21 02:33:55;;;;;;;5.93;4.38;;;19.10;51.80;;;;;;5066227;28;20040;-57
2020/12/21 02:36:20;;;;;;;5.28;3.95;;;19.00;51.80;;;;;;5064317;28;20040;-59
2020/12/21 02:38:46;;;;;;;6.10;4.15;;;19.00;51.80;;;;;;5062485;28;20744;-57
2020/12/21 02:41:15;;;;;;;6.50;4.15;;;19.00;51.80;;;;;;5063469;28;20051;-56
2020/12/21 02:43:40;;;;;;;5.07;4.18;;;19.00;51.80;;;;;;5063490;28;20525;-56
2020/12/21 02:46:15;;;;;;;6.00;4.00;;;19.00;51.70;;;;;;5059314;28;20040;-57
2020/12/21 02:48:41;;;;;;;6.00;4.47;;;19.00;51.70;;;;;;5060792;28;20119;-56
2020/12/21 02:51:07;;;;;;;4.40;3.60;;;19.00;51.70;;;;;;5063302;28;20198;-59
2020/12/21 02:53:32;;;;;;;6.05;4.10;;;19.00;51.80;;;;;;5063762;28;20062;-56
2020/12/21 02:55:58;;;;;;;4.70;4.03;;;18.90;51.70;;;;;;5064295;28;20078;-58
2020/12/21 02:58:23;;;;;;;5.95;4.03;;;18.90;51.70;;;;;;5063625;28;20399;-60
2020/12/21 03:00:49;;;;;;;4.95;4.15;;;18.90;51.70;;;;;;5063485;28;20072;-60
2020/12/21 03:03:14;;;;;;;4.97;3.78;;;18.90;51.70;;;;;;5064156;28;20039;-56
2020/12/21 03:05:40;;;;;;;4.05;3.15;;;18.90;51.70;;;;;;5063842;28;20033;-61
2020/12/21 03:08:06;;;;;;;3.92;3.40;;;18.90;51.70;;;;;;5045833;28;20507;-58
2020/12/21 03:10:32;;;;;;;5.13;4.13;;;18.90;51.70;;;;;;5063886;28;20170;-60
2020/12/21 03:12:58;;;;;;;4.72;3.78;;;18.90;51.70;;;;;;5063649;28;20135;-57
2020/12/21 03:15:23;;;;;;;4.80;3.50;;;18.80;51.60;;;;;;5063071;28;20032;-59
2020/12/21 03:17:57;;;;;;;4.97;3.80;;;18.90;51.70;;;;;;5046241;28;20110;-59
2020/12/21 03:20:23;;;;;;;3.85;3.25;;;18.80;51.70;;;;;;5063116;28;20043;-60
2020/12/21 03:22:48;;;;;;;3.78;3.17;;;18.80;52.30;;;;;;5063563;28;20032;-60
2020/12/21 03:25:14;;;;;;;3.63;3.30;;;18.80;51.70;;;;;;5066871;28;20032;-58
2020/12/21 03:27:40;;;;;;;3.50;3.17;;;18.80;51.80;;;;;;5049525;28;20734;-59
2020/12/21 03:30:06;;;;;;;5.40;3.72;;;18.80;51.80;;;;;;5066795;28;20039;-58
2020/12/21 03:32:31;;;;;;;4.15;3.40;;;18.80;51.80;;;;;;5067376;28;20025;-58
2020/12/21 03:34:57;;;;;;;4.82;3.42;;;18.90;52.00;;;;;;5065428;28;20028;-59
2020/12/21 03:37:22;;;;;;;4.45;2.83;;;18.90;52.10;;;;;;5067058;28;20035;-58
2020/12/21 03:39:48;;;;;;;5.18;3.70;;;18.90;52.20;;;;;;5066883;28;20137;-57
2020/12/21 03:42:13;;;;;;;4.07;2.85;;;19.00;52.20;;;;;;5066554;28;20032;-58
2020/12/21 03:44:39;;;;;;;4.47;3.33;;;19.00;52.30;;;;;;5066956;28;20025;-57
2020/12/21 03:47:04;;;;;;;3.67;3.05;;;19.00;52.30;;;;;;5049236;28;20036;-59
2020/12/21 03:49:30;;;;;;;3.65;2.67;;;19.10;52.30;;;;;;5067438;28;20036;-60
2020/12/21 03:51:55;;;;;;;3.53;2.78;;;19.10;52.30;;;;;;5066695;28;20035;-58
2020/12/21 03:54:22;;;;;;;4.38;2.83;;;19.20;52.30;;;;;;5067181;28;20036;-59
2020/12/21 03:56:47;;;;;;;3.65;2.95;;;19.20;52.20;;;;;;5066592;28;20029;-58
2020/12/21 03:59:13;;;;;;;4.63;3.53;;;19.20;52.10;;;;;;5066563;28;20028;-58
2020/12/21 04:01:38;;;;;;;3.90;3.08;;;19.20;52.10;;;;;;5066319;28;20487;-60
2020/12/21 04:04:07;;;;;;;2.92;2.60;;;19.20;52.00;;;;;;5066684;28;20033;-60
2020/12/21 04:06:36;;;;;;;3.95;3.20;;;19.20;52.00;;;;;;5067061;28;20047;-58
2020/12/21 04:09:02;;;;;;;3.10;2.78;;;19.20;52.00;;;;;;5066550;28;20105;-58
2020/12/21 04:11:28;;;;;;;3.15;2.63;;;19.20;51.90;;;;;;5048253;28;20075;-58
2020/12/21 04:13:53;;;;;;;2.67;2.35;;;19.20;51.90;;;;;;5066546;28;20044;-56
2020/12/21 04:16:19;;;;;;;3.58;2.58;;;19.20;51.80;;;;;;5066110;28;20161;-57
2020/12/21 04:18:44;;;;;;;3.28;2.30;;;19.20;51.80;;;;;;5066496;28;20411;-60
2020/12/21 04:21:10;;;;;;;4.13;2.63;;;19.20;51.80;;;;;;5067031;28;20036;-58
2020/12/21 04:23:36;;;;;;;4.13;2.95;;;19.20;51.80;;;;;;5066436;28;20062;-58
2020/12/21 04:26:02;;;;;;;3.50;3.20;;;19.20;51.70;;;;;;5066665;28;20056;-61
2020/12/21 04:28:27;;;;;;;4.18;2.63;;;19.20;51.70;;;;;;5066625;28;20040;-60
2020/12/21 04:30:52;;;;;;;2.90;2.47;;;19.10;51.60;;;;;;5065770;28;20024;-57
2020/12/21 04:33:18;;;;;;;3.50;2.47;;;19.10;51.60;;;;;;5066442;28;20044;-58
2020/12/21 04:35:43;;;;;;;3.28;2.47;;;19.10;51.70;;;;;;5065775;28;20037;-58
2020/12/21 04:38:09;;;;;;;2.92;2.60;;;19.10;51.60;;;;;;5066116;28;20028;-60
2020/12/21 04:40:34;;;;;;;2.90;2.65;;;19.10;51.60;;;;;;5066674;28;20047;-58
2020/12/21 04:43:00;;;;;;;3.20;2.55;;;19.10;51.60;;;;;;5047589;28;20032;-60
2020/12/21 04:45:26;;;;;;;3.22;2.30;;;19.10;51.60;;;;;;5065900;28;20044;-58
2020/12/21 04:47:52;;;;;;;3.25;2.55;;;19.10;51.60;;;;;;5048233;28;20029;-59
2020/12/21 04:50:17;;;;;;;3.65;2.60;;;19.10;51.60;;;;;;5040694;28;20032;-58
2020/12/21 04:52:50;;;;;;;2.90;2.22;;;19.10;51.60;;;;;;5066521;28;20641;-60
2020/12/21 04:55:18;;;;;;;3.03;2.50;;;19.10;51.60;;;;;;5061409;28;20036;-60
2020/12/21 04:57:57;;;;;;;2.70;2.20;;;19.10;51.60;;;;;;5069417;28;20028;-58
2020/12/21 05:00:23;;;;;;;2.15;1.88;;;19.10;51.60;;;;;;5065161;28;20465;-54
2020/12/21 05:02:49;;;;;;;2.70;2.22;;;19.00;51.50;;;;;;5065432;28;20044;-58
2020/12/21 05:05:25;;;;;;;2.65;2.00;;;19.00;51.50;;;;;;5065862;28;20132;-57
2020/12/21 05:07:51;;;;;;;2.45;2.15;;;19.00;51.50;;;;;;5048014;28;20029;-57
2020/12/21 05:10:16;;;;;;;2.78;2.50;;;19.00;51.50;;;;;;5065104;28;20529;-56
2020/12/21 05:12:42;;;;;;;2.42;2.22;;;19.00;51.50;;;;;;5065233;28;20040;-57
2020/12/21 05:15:14;;;;;;;2.97;2.20;;;18.90;51.50;;;;;;5065856;28;20029;-57
2020/12/21 05:17:39;;;;;;;2.97;2.17;;;18.90;51.50;;;;;;5065340;28;20039;-55
2020/12/21 05:20:05;;;;;;;2.95;2.65;;;18.90;51.50;;;;;;5064937;28;20036;-54
2020/12/21 05:22:30;;;;;;;2.13;1.92;;;18.90;51.50;;;;;;5064997;28;20428;-57
2020/12/21 05:25:06;;;;;;;3.08;2.22;;;18.90;51.50;;;;;;5064532;28;20028;-55
2020/12/21 05:27:31;;;;;;;2.83;2.42;;;18.90;51.50;;;;;;5064887;28;20060;-56
2020/12/21 05:29:57;;;;;;;2.22;1.83;;;18.90;51.50;;;;;;5064245;28;20033;-52
2020/12/21 05:32:22;;;;;;;2.63;2.10;;;18.90;51.50;;;;;;5064663;28;20549;-54
2020/12/21 05:34:48;;;;;;;3.08;2.28;;;18.80;51.50;;;;;;5064926;28;20029;-56
2020/12/21 05:37:18;;;;;;;2.28;2.08;;;18.80;51.50;;;;;;5046941;28;20028;-56
2020/12/21 05:39:53;;;;;;;2.22;1.70;;;18.80;51.60;;;;;;5065038;28;20032;-51
2020/12/21 05:42:19;;;;;;;2.70;1.98;;;18.90;51.60;;;;;;5046632;28;20752;-56
2020/12/21 05:44:51;;;;;;;2.38;1.95;;;18.90;51.70;;;;;;5064582;28;20028;-55
2020/12/21 05:47:17;;;;;;;2.78;2.15;;;18.90;51.70;;;;;;5063739;28;20064;-56
2020/12/21 05:49:49;;;;;;;3.25;2.13;;;18.90;51.70;;;;;;5064772;28;20518;-57
2020/12/21 05:52:17;;;;;;;2.20;1.85;;;18.90;51.80;;;;;;5045752;28;20590;-52
2020/12/21 05:54:43;;;;;;;2.75;2.17;;;19.00;51.90;;;;;;5046649;28;20032;-54
2020/12/21 05:57:08;;;;;;;2.40;1.80;;;19.00;51.90;;;;;;5045864;28;20512;-54
2020/12/21 05:59:35;;;;;;;2.03;1.60;;;19.00;52.00;;;;;;5064304;28;20074;-52
2020/12/21 06:02:00;;;;;;;2.05;1.80;;;19.10;52.00;;;;;;5045805;28;20491;-55
2020/12/21 06:04:28;;;;;;;1.63;1.40;;;19.10;52.00;;;;;;5064260;28;20036;-55
2020/12/21 06:06:54;;;;;;;2.30;1.80;;;19.10;51.90;;;;;;5029413;28;20071;-54
2020/12/21 06:09:19;;;;;;;1.98;1.77;;;19.20;51.90;;;;;;5029380;28;20530;-53
2020/12/21 06:11:45;;;;;;;2.05;1.60;;;19.10;51.80;;;;;;5029005;28;20044;-52
2020/12/21 06:14:14;;;;;;;2.28;1.92;;;19.20;51.90;;;;;;5046152;28;20040;-52
2020/12/21 06:16:40;;;;;;;2.25;1.88;;;19.10;51.70;;;;;;5046233;28;20036;-52
2020/12/21 06:19:06;;;;;;;2.88;2.00;;;19.20;51.80;;;;;;5045425;28;20060;-52
2020/12/21 06:21:37;;;;;;;2.38;1.80;;;19.20;51.70;;;;;;5063682;28;20033;-55
2020/12/21 06:24:03;;;;;;;1.73;1.60;;;19.20;51.70;;;;;;5063664;28;20033;-54
2020/12/21 06:26:37;;;;;;;2.35;2.05;;;19.10;51.60;;;;;;5045480;28;20415;-57
2020/12/21 06:29:09;;;;;;;2.13;1.93;;;19.20;51.70;;;;;;5062706;28;20445;-53
2020/12/21 06:31:51;;;;;;;2.65;2.03;;;19.10;51.60;;;;;;5061548;28;20047;-55
2020/12/21 06:34:29;;;;;;;2.80;2.22;;;19.10;51.60;;;;;;5062082;28;20029;-53
2020/12/21 06:37:12;;;;;;;2.15;1.85;;;19.10;51.60;;;;;;5062448;28;20131;-56
2020/12/21 06:39:37;;;;;;;2.30;2.00;;;19.10;51.50;;;;;;5062911;28;20548;-55
2020/12/21 06:42:13;;;;;;;2.78;2.10;;;19.10;51.50;;;;;;5062728;28;20108;-55
2020/12/21 06:44:40;;;;;;;2.20;1.90;;;19.10;51.50;;;;;;5046278;28;20755;-54
2020/12/21 06:47:11;;;;;;;3.38;2.10;;;19.10;51.50;;;;;;5063945;28;20040;-52
2020/12/21 06:49:36;;;;;;;3.00;2.13;;;19.10;51.40;;;;;;5064261;28;20570;-54
2020/12/21 06:52:02;;;;;;;3.25;1.92;;;19.00;51.40;;;;;;5045732;28;20025;-55
2020/12/21 06:54:27;;;;;;;3.35;2.28;;;19.10;51.40;;;;;;5064137;28;20033;-55
2020/12/21 06:56:53;;;;;;;3.13;1.73;;;19.00;51.40;;;;;;5064412;28;20135;-52
2020/12/21 06:59:19;;;;;;;2.42;2.20;;;19.00;51.40;;;;;;5049450;28;20439;-53
2020/12/21 07:01:46;;;;;;;3.20;2.30;;;19.00;51.40;;;;;;5049674;28;21615;-56
2020/12/21 07:04:16;;;;;;;2.70;2.25;;;19.00;51.40;;;;;;5067519;28;20033;-52
2020/12/21 07:06:42;;;;;;;2.70;2.20;;;19.00;51.40;;;;;;5068183;28;20029;-53
2020/12/21 07:09:08;;;;;;;2.33;1.90;;;19.00;51.30;;;;;;5068102;28;20081;-51
2020/12/21 07:11:33;;;;;;;3.00;2.58;;;19.00;51.30;;;;;;5067647;28;20111;-55
2020/12/21 07:13:59;;;;;;;2.88;2.25;;;18.90;51.30;;;;;;5050436;28;20158;-57
2020/12/21 07:16:25;;;;;;;3.40;2.38;;;18.90;51.30;;;;;;5050696;28;20036;-55
2020/12/21 07:18:50;;;;;;;3.38;2.67;;;18.90;51.30;;;;;;5068014;28;20214;-56
2020/12/21 07:21:16;;;;;;;2.17;1.83;;;18.90;51.30;;;;;;5068105;28;20024;-52
2020/12/21 07:23:42;;;;;;;2.53;2.10;;;18.90;51.30;;;;;;5067560;28;20489;-57
2020/12/21 07:26:08;;;;;;;2.85;2.42;;;18.90;51.30;;;;;;5068370;28;20499;-58
2020/12/21 07:28:33;;;;;;;3.75;2.72;;;18.80;51.20;;;;;;5068003;28;20044;-57
2020/12/21 07:31:20;;;;;;;3.47;2.53;;;18.80;51.30;;;;;;5067674;28;20051;-58
2020/12/21 07:33:58;;;;;;;4.55;3.58;;;18.80;51.30;;;;;;5067976;28;20029;-58
2020/12/21 07:36:28;;;;;;;6.72;4.50;;;18.80;51.30;;;;;;5068006;28;20065;-55
2020/12/21 07:39:13;;;;;;;14.25;7.15;;;18.90;51.50;;;;;;5067932;28;20111;-55
2020/12/21 07:41:39;;;;;;;4.85;3.60;;;18.80;51.40;;;;;;5066866;28;20032;-55
2020/12/21 07:44:07;;;;;;;4.18;3.10;;;18.90;51.50;;;;;;5067556;28;20059;-52
2020/12/21 07:47:12;;;;;;;4.70;3.58;;;18.90;51.50;;;;;;5067205;28;20043;-55
2020/12/21 07:49:38;;;;;;;5.35;3.17;;;18.90;51.60;;;;;;5032015;28;20546;-52
2020/12/21 07:52:05;;;;;;;4.13;3.08;;;18.90;51.60;;;;;;5032627;28;20025;-55
2020/12/21 07:54:37;;;;;;;5.80;3.72;;;18.90;51.60;;;;;;5067235;28;20033;-52
2020/12/21 07:57:03;;;;;;;6.78;4.10;;;19.00;51.80;;;;;;5049531;28;20036;-54
2020/12/21 07:59:29;;;;;;;5.88;3.63;;;19.10;51.80;;;;;;5067111;28;20036;-56
2020/12/21 08:02:17;;;;;;;4.93;3.50;;;19.10;51.90;;;;;;5066371;28;20199;-52
2020/12/21 08:04:42;;;;;;;6.10;3.67;;;19.10;51.80;;;;;;5032493;28;20028;-55
2020/12/21 08:07:11;;;;;;;3.88;3.20;;;19.10;51.90;;;;;;5066699;28;20028;-55
2020/12/21 08:09:38;;;;;;;5.18;3.35;;;19.20;51.80;;;;;;5066216;28;20174;-52
2020/12/21 08:12:21;;;;;;;5.15;3.05;;;19.10;51.70;;;;;;5066266;28;20024;-52
2020/12/21 08:14:46;;;;;;;5.78;3.38;;;19.20;51.60;;;;;;5067005;28;20029;-56
2020/12/21 08:17:13;;;;;;;5.47;3.40;;;19.20;51.60;;;;;;5067092;28;20075;-56
2020/12/21 08:19:48;;;;;;;5.38;3.33;;;19.20;51.60;;;;;;5066457;28;20032;-53
2020/12/21 08:22:17;;;;;;;;;;;19.20;51.50;;;;;;5066686;28;20673;-55
2020/12/21 08:24:43;;;;;;;5.10;3.10;;;19.20;51.50;;;;;;5066756;28;19995;-56
2020/12/21 08:27:09;;;;;;;5.32;3.85;;;19.20;51.50;;;;;;5066251;28;20032;-56
2020/12/21 08:29:34;;;;;;;4.40;3.20;;;19.20;51.50;;;;;;5032302;28;20063;-55
2020/12/21 08:32:00;;;;;;;4.93;3.90;;;19.20;51.40;;;;;;5052647;28;20521;-54
2020/12/21 08:34:25;;;;;;;6.80;3.92;;;19.20;51.40;;;;;;5066915;28;20029;-51
2020/12/21 08:36:51;;;;;;;5.53;3.50;;;19.20;51.40;;;;;;5066447;28;20032;-54
2020/12/21 08:39:20;;;;;;;4.03;3.17;;;19.10;51.40;;;;;;5048306;28;20041;-56
2020/12/21 08:41:54;;;;;;;4.63;3.20;;;19.20;51.40;;;;;;5048110;28;20036;-56
2020/12/21 08:44:20;;;;;;;5.78;3.55;;;19.10;51.30;;;;;;5048641;28;20036;-52
2020/12/21 08:46:47;;;;;;;5.88;3.97;;;19.10;51.40;;;;;;5066297;28;20098;-55
2020/12/21 08:49:12;;;;;;;5.63;3.70;;;19.10;51.30;;;;;;5066464;28;20380;-56
2020/12/21 08:51:38;;;;;;;8.20;4.07;;;19.10;51.30;;;;;;5065805;28;20031;-55
2020/12/21 08:54:03;;;;;;;6.50;3.83;;;19.10;51.20;;;;;;5066909;28;20479;-55
2020/12/21 08:56:29;;;;;;;6.50;4.45;;;19.10;51.20;;;;;;5066388;28;20033;-55
2020/12/21 08:58:54;;;;;;;4.63;3.60;;;19.10;51.20;;;;;;5066809;28;20598;-55
2020/12/21 09:01:20;;;;;;;5.72;3.90;;;19.10;51.20;;;;;;5066517;28;20033;-56
2020/12/21 09:03:46;;;;;;;5.60;3.60;;;19.10;51.20;;;;;;5066177;28;20028;-53
2020/12/21 09:06:18;;;;;;;7.20;4.78;;;19.00;51.20;;;;;;5065357;28;20107;-53
2020/12/21 09:08:44;;;;;;;5.57;3.65;;;19.10;51.20;;;;;;5065590;28;20039;-54
2020/12/21 09:11:09;;;;;;;4.68;3.42;;;19.10;51.20;;;;;;5065478;28;20025;-54
2020/12/21 09:13:35;;;;;;;7.07;4.32;;;19.10;51.20;;;;;;5065402;28;20044;-52
2020/12/21 09:16:01;;;;;;;7.88;4.47;;;19.10;51.80;;;;;;5065638;28;20029;-55
2020/12/21 09:18:27;;;;;;;5.68;3.47;;;19.00;51.10;;;;;;5066447;28;20037;-55
2020/12/21 09:20:53;;;;;;;7.78;4.68;;;19.00;51.10;;;;;;5064552;28;20078;-54
2020/12/21 09:23:18;;;;;;;6.25;4.32;;;19.00;51.10;;;;;;5065138;28;20637;-53
2020/12/21 09:25:44;;;;;;;6.13;4.32;;;19.00;51.10;;;;;;5065279;28;20031;-55
2020/12/21 09:28:09;;;;;;;5.93;4.20;;;19.00;51.10;;;;;;5065321;28;20025;-54
2020/12/21 09:30:35;;;;;;;6.15;3.97;;;19.00;51.10;;;;;;5065067;28;20510;-54
2020/12/21 09:33:00;;;;;;;7.85;4.22;;;19.00;51.20;;;;;;5047468;28;20055;-54
2020/12/21 09:35:26;;;;;;;8.35;5.20;;;19.00;51.10;;;;;;5064915;28;20099;-55
2020/12/21 09:37:51;;;;;;;5.53;3.92;;;18.90;51.00;;;;;;5064939;28;20225;-53
2020/12/21 09:40:17;;;;;;;7.25;4.43;;;19.00;51.10;;;;;;5065271;28;20154;-54
2020/12/21 09:42:42;;;;;;;5.80;4.15;;;18.90;51.00;;;;;;5064971;28;20531;-51
2020/12/21 09:45:08;;;;;;;5.93;3.95;;;18.90;51.00;;;;;;5065776;28;20828;-52
2020/12/21 09:47:33;;;;;;;6.95;4.30;;;18.90;51.10;;;;;;5064995;28;20246;-52
2020/12/21 09:49:59;;;;;;;6.35;4.53;;;18.90;51.00;;;;;;5065376;28;20027;-52
2020/12/21 09:52:24;;;;;;;6.38;4.15;;;18.90;51.10;;;;;;5064615;28;20470;-52
2020/12/21 09:54:50;;;;;;;5.97;4.07;;;18.90;51.10;;;;;;5064810;28;20108;-51
2020/12/21 09:57:15;;;;;;;6.38;4.32;;;18.90;51.10;;;;;;5064835;28;20073;-53
2020/12/21 09:59:41;;;;;;;8.73;4.68;;;18.90;51.10;;;;;;5065063;28;20043;-54
2020/12/21 10:02:07;;;;;;;6.70;4.30;;;18.90;51.20;;;;;;5064920;28;20028;-54
2020/12/21 10:04:32;;;;;;;9.35;5.47;;;18.90;51.20;;;;;;5065197;28;20032;-56
2020/12/21 10:06:58;;;;;;;5.63;4.20;;;19.00;51.30;;;;;;5064979;28;20033;-58
2020/12/21 10:09:23;;;;;;;8.23;5.03;;;19.00;51.30;;;;;;5064966;28;20028;-55
2020/12/21 10:11:51;;;;;;;8.38;4.97;;;19.00;51.40;;;;;;5064073;28;20029;-55
2020/12/21 10:14:16;;;;;;;7.72;5.10;;;19.00;51.50;;;;;;5064609;28;20443;-56
2020/12/21 10:16:42;;;;;;;9.77;5.25;;;19.10;51.50;;;;;;5064698;28;20025;-55
2020/12/21 10:19:07;;;;;;;9.13;5.47;;;19.10;51.50;;;;;;5065030;28;20028;-54
2020/12/21 10:21:32;;;;;;;10.65;5.20;;;19.20;51.60;;;;;;5064748;28;20231;-56
2020/12/21 10:23:58;;;;;;;6.63;4.65;;;19.20;51.50;;;;;;5064866;28;20028;-58
2020/12/21 10:26:24;;;;;;;7.45;4.93;;;19.20;51.50;;;;;;5063295;28;20040;-57
2020/12/21 10:28:49;;;;;;;9.75;4.93;;;19.30;51.50;;;;;;5065804;28;20027;-55
2020/12/21 10:31:15;;;;;;;8.48;5.07;;;19.30;51.50;;;;;;5065099;28;20036;-58
2020/12/21 10:33:40;;;;;;;7.40;4.45;;;19.30;51.40;;;;;;5064950;28;20032;-57
2020/12/21 10:36:06;;;;;;;6.55;4.47;;;19.30;51.40;;;;;;5065843;28;20081;-56
2020/12/21 10:38:31;;;;;;;7.35;5.05;;;19.30;51.40;;;;;;5065639;28;20028;-51
2020/12/21 10:40:57;;;;;;;6.78;4.70;;;19.30;51.40;;;;;;5065080;28;20028;-51
2020/12/21 10:43:23;;;;;;;7.57;4.80;;;19.40;51.40;;;;;;5065105;28;20044;-54
2020/12/21 10:45:48;;;;;;;9.57;4.93;;;19.40;51.40;;;;;;5065190;28;20040;-56
2020/12/21 10:48:14;;;;;;;5.88;3.80;;;19.40;51.30;;;;;;5065526;28;20032;-53
2020/12/21 10:50:39;;;;;;;8.25;4.55;;;19.40;51.30;;;;;;5064991;28;20411;-50
2020/12/21 10:53:05;;;;;;;5.93;4.07;;;19.40;51.30;;;;;;5065664;28;20032;-53
2020/12/21 10:55:30;;;;;;;5.90;4.30;;;19.50;51.40;;;;;;5065059;28;20051;-51
2020/12/21 10:57:56;;;;;;;6.47;4.00;;;19.50;51.40;;;;;;5065318;28;20032;-54
2020/12/21 11:00:24;;;;;;;6.35;4.03;;;19.50;51.20;;;;;;5064865;28;20115;-53
2020/12/21 11:02:49;;;;;;;5.10;3.63;;;19.50;51.10;;;;;;5047290;28;20163;-53
2020/12/21 11:05:15;;;;;;;7.50;4.03;;;19.60;51.10;;;;;;5064709;28;20139;-55
2020/12/21 11:07:40;;;;;;;6.88;4.25;;;19.60;50.90;;;;;;5064973;28;20025;-52
2020/12/21 11:10:09;;;;;;;7.07;4.38;;;19.60;50.80;;;;;;5065438;28;20021;-55
2020/12/21 11:12:35;;;;;;;6.63;4.60;;;19.60;50.80;;;;;;5065370;28;20033;-53
2020/12/21 11:15:01;;;;;;;5.95;4.00;;;19.70;50.70;;;;;;5063558;28;20051;-53
2020/12/21 11:17:26;;;;;;;6.63;4.43;;;19.60;50.50;;;;;;5064611;28;20543;-55
2020/12/21 11:19:52;;;;;;;4.25;3.85;;;19.60;50.50;;;;;;5064710;28;20025;-53
2020/12/21 11:22:17;;;;;;;4.95;3.50;;;19.50;50.50;;;;;;5064549;28;20407;-54
2020/12/21 11:24:43;;;;;;;4.63;3.92;;;19.50;50.60;;;;;;5064845;28;20051;-53
2020/12/21 11:27:08;;;;;;;7.40;4.28;;;19.50;50.50;;;;;;5065352;28;20036;-53
2020/12/21 11:29:34;;;;;;;5.38;4.15;;;19.40;50.50;;;;;;5047274;28;20622;-56
2020/12/21 11:31:59;;;;;;;5.57;4.22;;;19.40;50.50;;;;;;5064400;28;20037;-52
2020/12/21 11:34:25;;;;;;;5.60;4.18;;;19.40;50.50;;;;;;5065136;28;20028;-56
2020/12/21 11:36:50;;;;;;;5.78;3.58;;;19.40;50.50;;;;;;5065161;28;20043;-56
2020/12/21 11:39:16;;;;;;;6.20;3.83;;;19.40;50.50;;;;;;5065470;28;20040;-53
2020/12/21 11:41:41;;;;;;;6.13;4.10;;;19.30;50.40;;;;;;5064897;28;20032;-53
2020/12/21 11:44:07;;;;;;;5.85;4.20;;;19.30;50.50;;;;;;5064190;28;20081;-52
2020/12/21 11:46:36;;;;;;;5.45;3.75;;;19.30;50.50;;;;;;5068574;28;20441;-55
2020/12/21 11:49:02;;;;;;;4.70;3.85;;;19.30;50.60;;;;;;5068460;28;20104;-55
2020/12/21 11:51:28;;;;;;;5.57;3.88;;;19.30;50.50;;;;;;5067787;28;20447;-55
2020/12/21 11:53:53;;;;;;;6.22;4.47;;;19.30;50.40;;;;;;5068428;28;20116;-56
2020/12/21 11:56:19;;;;;;;7.25;4.07;;;19.30;50.50;;;;;;5068047;28;20063;-54
2020/12/21 11:58:45;;;;;;;7.63;4.32;;;19.40;50.50;;;;;;5067617;28;20403;-56
2020/12/21 12:01:10;;;;;;;6.88;4.43;;;19.50;50.40;;;;;;5067339;28;20086;-55
2020/12/21 12:03:36;;;;;;;5.53;3.85;;;19.50;50.40;;;;;;5067165;28;20032;-55
2020/12/21 12:06:02;;;;;;;5.90;4.43;;;19.60;50.20;;;;;;5067094;28;20033;-52
2020/12/21 12:08:27;;;;;;;6.75;3.22;;;19.70;50.00;;;;;;5066890;28;20033;-54
2020/12/21 12:10:52;;;;;;;4.78;3.97;;;19.70;49.80;;;;;;5067031;28;20024;-55
2020/12/21 12:13:18;;;;;;;6.00;4.07;;;19.70;49.90;;;;;;5067173;28;20040;-55
2020/12/21 12:15:43;;;;;;;5.43;3.78;;;19.70;49.80;;;;;;5068410;28;20077;-55
2020/12/21 12:18:09;;;;;;;5.60;3.75;;;19.70;49.80;;;;;;5067992;28;20028;-53
2020/12/21 12:20:35;;;;;;;5.95;3.92;;;19.70;49.80;;;;;;5067784;28;20045;-52
2020/12/21 12:23:00;;;;;;;5.35;3.80;;;19.80;49.80;;;;;;5067546;28;20106;-51
2020/12/21 12:25:26;;;;;;;7.38;4.70;;;19.70;49.50;;;;;;5068416;28;20044;-51
2020/12/21 12:27:51;;;;;;;7.57;4.20;;;19.70;49.50;;;;;;5071949;28;20441;-53
2020/12/21 12:30:17;;;;;;;6.22;3.70;;;19.70;49.50;;;;;;5073912;28;20041;-58
2020/12/21 12:32:42;;;;;;;5.15;3.55;;;19.60;49.50;;;;;;5075480;28;20020;-51
2020/12/21 12:35:07;;;;;;;4.78;3.60;;;19.60;49.70;;;;;;5068387;28;20403;-55
2020/12/21 12:37:33;;;;;;;5.45;3.65;;;19.60;49.60;;;;;;5067881;28;20058;-54
2020/12/21 12:39:58;;;;;;;4.70;3.30;;;19.60;49.60;;;;;;5067531;28;20032;-52
2020/12/21 12:42:26;;;;;;;6.15;3.65;;;19.60;49.70;;;;;;5067218;28;20395;-55